Hlavní strana
METAR-TAF:

METAR-TAF

Letiště :

Çorlu, Turecko

zeměpisná šířka: 41-08N, zeměpisná délka: 027-55E, výška: 173 m

Aktuální stav počasí

Zpráva byla vytvořena před 49 minutami, v 19:50 UTC
Severní vítr 12 kt
Teplota 13°C
Vlhkost vzduchu 94%
Tlak 1023 hPa
Viditelnost: 6000 m

METAR: LTBU 191950Z 01012KT 6000 NSC 13/12 Q1023 RMK RWY22 04011KT

Čas: 23:39 (20:39 UTC)

Předpověď počasí

Zpráva byla vytvořena před 3 hodinami a 59 minutami, v 16:40 UTC
Předpověď platná od 19 v 18 UTC do 20 v 18 UTC
Severní vítr 9 kt
Viditelnost: 8000 m
Změna
od 19 v 18 UTC do 19 v 22 UTC
Polojasno ve výšce 1200 ft
Dočasný
od 19 v 19 UTC do 19 v 23 UTC
Viditelnost: 4000 m
kouřmo
Dočasný
od 20 v 01 UTC do 20 v 05 UTC
Viditelnost: 1200 m
Oblačno až skoro zataženo ve výšce 800 ft
chuchvalce mlhy
Změna
od 20 v 15 UTC do 20 v 18 UTC
Viditelnost: 4000 m
kouřmo

TAF: LTBU 191640Z 1918/2018 01009KT 8000 NSC BECMG 1918/1922 SCT012 TEMPO 1919/1923 4000 BR TEMPO 2001/2005 1200 BCFG BKN008 BECMG 2015/2018 4000 BR

Stav a předpovědi počasí z více než 4 000 letišť (zprávy METAR a TAF).

Červené a žluté tečky na mapě představují dostupné meteorologické stanice.

Když kurzor umístíte na tečku, zobrazí se název stanice.

Pak kliknutím zobrazíte stav a předpověď počasí.

Chcete-li změnit mapu, kliknutím na zelené tlačítko se znaménkem +mapu přiblížíte, kliknutím na zelené tlačítko se znaménkem – mapu oddálíte a kliknutím na zelené šipky přejdete na sousední mapy.


METAR-TAF: